Time;durP1;ratioP1;P1;durP2;ratioP2;P2;SDS_P1;SDS_P2;PMS_P1;PMS_P2;Temp;Humidity;BMP_temperature;BMP_pressure;BME280_temperature;BME280_humidity;BME280_pressure;Samples;Min_cycle;Max_cycle;Signal;HPM_P1;HPM_P2
2022/07/04 00:00:28;;;;;;;1.70;1.10;;;21.40;67.90;;;;;;5034779;28;20021;-87
2022/07/04 00:02:55;;;;;;;3.83;1.00;;;21.50;67.70;;;;;;5034212;28;20100;-89
2022/07/04 00:05:21;;;;;;;5.88;1.10;;;21.40;67.50;;;;;;5052158;28;20018;-89
2022/07/04 00:07:48;;;;;;;2.00;1.30;;;21.40;66.90;;;;;;5052008;28;20064;-88
2022/07/04 00:10:17;;;;;;;3.22;1.25;;;21.40;66.40;;;;;;5034016;28;20013;-89
2022/07/04 00:12:43;;;;;;;2.50;0.98;;;21.50;66.10;;;;;;5034258;28;20021;-88
2022/07/04 00:15:10;;;;;;;2.35;1.33;;;21.50;66.00;;;;;;5033625;28;20029;-89
2022/07/04 00:17:36;;;;;;;5.22;1.45;;;21.50;66.00;;;;;;5034097;28;20021;-88
2022/07/04 00:20:03;;;;;;;3.85;1.30;;;21.50;65.60;;;;;;5033881;28;20027;-89
2022/07/04 00:22:28;;;;;;;4.50;1.45;;;21.60;65.20;;;;;;5033598;28;20028;-88
2022/07/04 00:24:54;;;;;;;4.03;1.45;;;21.60;65.00;;;;;;5034372;28;20028;-88
2022/07/04 00:27:20;;;;;;;2.65;1.40;;;21.60;64.80;;;;;;5051661;28;20035;-88
2022/07/04 00:29:45;;;;;;;2.10;1.00;;;21.60;64.50;;;;;;5033691;28;20141;-88
2022/07/04 00:32:11;;;;;;;4.18;0.95;;;21.60;64.40;;;;;;5033919;28;20273;-88
2022/07/04 00:34:37;;;;;;;2.47;1.17;;;21.60;64.20;;;;;;5034086;28;20060;-88
2022/07/04 00:37:03;;;;;;;7.18;1.10;;;21.60;64.30;;;;;;5051848;28;20033;-88
2022/07/04 00:39:29;;;;;;;2.28;1.20;;;21.50;65.00;;;;;;5050413;28;20524;-88
2022/07/04 00:41:54;;;;;;;2.20;1.20;;;21.50;65.50;;;;;;5033338;28;20021;-88
2022/07/04 00:44:20;;;;;;;3.03;1.30;;;21.40;66.20;;;;;;5032448;28;20084;-88
2022/07/04 00:46:46;;;;;;;3.35;1.30;;;21.30;66.70;;;;;;5033370;28;20542;-88
2022/07/04 00:49:14;;;;;;;2.30;1.15;;;21.20;67.70;;;;;;5033475;28;20036;-88
2022/07/04 00:51:42;;;;;;;4.43;2.08;;;21.10;68.40;;;;;;5032438;28;20029;-89
2022/07/04 00:54:10;;;;;;;2.55;1.25;;;21.00;69.50;;;;;;5032004;28;20552;-88
2022/07/04 00:56:37;;;;;;;2.70;1.55;;;20.90;70.20;;;;;;5033650;28;20086;-88
2022/07/04 00:59:03;;;;;;;2.30;1.15;;;20.80;70.90;;;;;;5051129;28;20032;-88
2022/07/04 01:01:28;;;;;;;2.72;1.40;;;20.70;71.70;;;;;;5033588;28;20036;-88
2022/07/04 01:03:56;;;;;;;4.43;1.30;;;20.70;71.50;;;;;;5033357;28;20465;-88
2022/07/04 01:06:22;;;;;;;3.03;1.30;;;20.60;71.40;;;;;;5033662;28;20115;-89
2022/07/04 01:08:48;;;;;;;1.88;0.88;;;20.50;71.50;;;;;;5051032;28;20041;-87
2022/07/04 01:11:15;;;;;;;4.50;1.20;;;20.50;71.40;;;;;;5033069;28;20439;-88
2022/07/04 01:13:42;;;;;;;4.00;1.40;;;20.50;71.80;;;;;;5033541;28;20036;-89
2022/07/04 01:16:08;;;;;;;1.95;1.15;;;20.50;72.20;;;;;;5033298;28;20060;-88
2022/07/04 01:18:34;;;;;;;2.42;1.25;;;20.50;72.30;;;;;;5032756;28;20531;-88
2022/07/04 01:21:00;;;;;;;5.38;1.38;;;20.50;72.50;;;;;;5033276;28;20017;-89
2022/07/04 01:23:26;;;;;;;2.22;1.10;;;20.50;72.80;;;;;;5033038;28;20033;-88
2022/07/04 01:25:52;;;;;;;3.72;1.63;;;20.40;73.30;;;;;;5033385;28;20025;-88
2022/07/04 01:28:22;;;;;;;3.38;1.58;;;20.40;73.10;;;;;;5032606;28;20123;-89
2022/07/04 01:30:48;;;;;;;3.53;1.60;;;20.40;73.60;;;;;;5032558;28;20086;-86
2022/07/04 01:33:14;;;;;;;4.40;1.42;;;20.40;73.90;;;;;;5036050;28;20055;-88
2022/07/04 01:35:40;;;;;;;8.73;1.10;;;20.30;74.50;;;;;;5033330;28;20116;-87
2022/07/04 01:38:06;;;;;;;1.95;1.10;;;20.30;74.80;;;;;;5032817;28;20174;-87
2022/07/04 01:40:32;;;;;;;3.30;1.00;;;20.30;74.60;;;;;;5033102;28;20115;-87
2022/07/04 01:42:58;;;;;;;1.55;1.00;;;20.30;74.70;;;;;;5032876;28;20691;-88
2022/07/04 01:45:24;;;;;;;3.45;1.30;;;20.30;74.40;;;;;;5033515;28;20052;-88
2022/07/04 01:47:51;;;;;;;2.60;1.45;;;20.40;74.20;;;;;;5015635;28;20060;-87
2022/07/04 01:50:17;;;;;;;2.22;1.10;;;20.30;74.40;;;;;;5032887;28;20025;-88
2022/07/04 01:52:43;;;;;;;1.80;1.50;;;20.30;74.90;;;;;;5049586;28;20041;-88
2022/07/04 01:55:10;;;;;;;2.13;1.20;;;20.30;75.50;;;;;;5051033;28;20021;-88
2022/07/04 01:57:37;;;;;;;3.58;1.45;;;20.20;76.10;;;;;;5053324;28;20029;-88
2022/07/04 02:02:52;;;;;;;2.80;1.15;;;20.10;77.00;;;;;;5054655;28;20449;-91
2022/07/04 02:05:18;;;;;;;6.38;1.38;;;19.90;77.90;;;;;;5052732;28;20048;-89
2022/07/04 02:07:44;;;;;;;2.83;1.40;;;19.90;77.90;;;;;;5036309;28;20047;-88
2022/07/04 02:10:10;;;;;;;3.92;1.58;;;19.80;78.70;;;;;;5051441;28;20025;-89
2022/07/04 02:15:20;;;;;;;2.88;1.58;;;19.70;79.90;;;;;;5053616;28;20032;-90
2022/07/04 02:17:46;;;;;;;2.42;1.35;;;19.70;80.20;;;;;;5053136;28;20025;-88
2022/07/04 02:20:11;;;;;;;2.42;1.38;;;19.70;81.40;;;;;;5069884;28;20020;-89
2022/07/04 02:22:37;;;;;;;5.57;1.80;;;19.70;82.30;;;;;;5057237;28;20047;-88
2022/07/04 02:25:03;;;;;;;3.15;1.30;;;19.70;83.40;;;;;;5072884;28;20029;-89
2022/07/04 02:27:29;;;;;;;2.83;1.13;;;19.60;84.30;;;;;;5072770;28;20056;-88
2022/07/04 02:29:55;;;;;;;3.17;1.48;;;19.50;85.50;;;;;;5072968;28;20178;-88
2022/07/04 02:32:21;;;;;;;3.55;1.48;;;19.50;86.40;;;;;;5073381;28;20020;-88
2022/07/04 02:34:46;;;;;;;5.07;1.42;;;19.40;87.70;;;;;;5066647;28;20120;-89
2022/07/04 02:37:12;;;;;;;2.83;1.42;;;19.40;88.30;;;;;;5034216;28;20114;-88
2022/07/04 02:39:38;;;;;;;2.83;1.70;;;19.30;89.70;;;;;;5052309;28;20029;-88
2022/07/04 02:42:04;;;;;;;2.65;1.27;;;19.30;90.40;;;;;;5035680;28;20178;-88
2022/07/04 02:44:30;;;;;;;4.28;1.20;;;19.30;90.90;;;;;;5035628;28;20039;-86
2022/07/04 02:46:56;;;;;;;7.03;1.55;;;19.30;91.60;;;;;;5035559;28;20057;-87
2022/07/04 02:49:22;;;;;;;2.63;1.25;;;19.30;92.30;;;;;;5053472;28;20021;-87
2022/07/04 02:51:48;;;;;;;4.35;1.60;;;19.30;93.00;;;;;;5034850;28;20074;-89
2022/07/04 02:54:14;;;;;;;8.93;1.40;;;19.30;93.60;;;;;;5035436;28;20029;-88
2022/07/04 02:56:39;;;;;;;4.00;1.80;;;19.20;94.30;;;;;;5035545;28;20017;-88
2022/07/04 02:59:05;;;;;;;4.32;1.90;;;19.20;94.80;;;;;;5035669;28;20032;-89
2022/07/04 03:01:31;;;;;;;18.27;7.25;;;19.10;95.30;;;;;;5035191;28;20447;-88
2022/07/04 03:03:57;;;;;;;14.07;2.15;;;19.10;95.90;;;;;;5035067;28;20460;-87
2022/07/04 03:06:23;;;;;;;3.38;1.30;;;19.00;96.70;;;;;;5034142;28;20033;-88
2022/07/04 03:08:49;;;;;;;3.45;1.60;;;19.10;97.30;;;;;;5035094;28;20329;-87
2022/07/04 03:11:14;;;;;;;5.35;1.50;;;19.10;97.80;;;;;;5034951;28;20025;-88
2022/07/04 03:13:41;;;;;;;2.03;1.42;;;19.00;97.90;;;;;;5035290;28;20036;-89
2022/07/04 03:16:07;;;;;;;2.50;1.50;;;19.10;97.40;;;;;;5035340;28;20025;-88
2022/07/04 03:18:32;;;;;;;3.95;1.70;;;19.00;97.70;;;;;;5035340;28;20021;-88
2022/07/04 03:20:58;;;;;;;3.47;1.23;;;19.00;97.90;;;;;;5034829;28;20052;-87
2022/07/04 03:23:24;;;;;;;4.20;1.63;;;19.00;97.80;;;;;;5035491;28;20116;-89
2022/07/04 03:25:49;;;;;;;3.35;1.30;;;19.10;98.30;;;;;;5053240;28;20033;-89
2022/07/04 03:28:15;;;;;;;2.65;1.33;;;19.10;97.90;;;;;;5034517;28;20504;-89
2022/07/04 03:30:41;;;;;;;3.53;1.48;;;19.20;97.20;;;;;;5035219;28;20128;-88
2022/07/04 03:33:06;;;;;;;2.95;1.50;;;19.20;97.10;;;;;;5034778;28;20382;-89
2022/07/04 03:35:32;;;;;;;2.05;1.30;;;19.30;97.00;;;;;;5034347;28;20052;-89
2022/07/04 03:37:58;;;;;;;2.03;1.15;;;19.30;97.20;;;;;;5034936;28;20035;-89
2022/07/04 03:40:24;;;;;;;1.98;1.45;;;19.40;97.20;;;;;;5034500;28;20401;-88
2022/07/04 03:42:50;;;;;;;8.25;2.17;;;19.50;97.20;;;;;;5039729;28;20031;-87
2022/07/04 03:45:15;;;;;;;10.18;1.80;;;19.50;96.90;;;;;;5055003;28;20446;-88
2022/07/04 03:47:41;;;;;;;7.07;1.60;;;19.60;97.00;;;;;;5057813;28;20032;-88
2022/07/04 03:50:07;;;;;;;2.13;1.30;;;19.70;97.30;;;;;;5039744;28;20477;-88
2022/07/04 03:52:33;;;;;;;6.97;2.00;;;19.70;96.70;;;;;;5034555;28;20104;-88
2022/07/04 03:54:58;;;;;;;2.30;1.20;;;19.80;96.50;;;;;;5034826;28;20164;-89
2022/07/04 03:57:24;;;;;;;3.17;1.55;;;20.00;95.70;;;;;;5034557;28;20104;-88
2022/07/04 03:59:50;;;;;;;4.45;1.50;;;20.20;95.10;;;;;;5034669;28;20033;-88
2022/07/04 04:02:16;;;;;;;5.47;1.40;;;20.30;94.30;;;;;;5033989;28;20025;-88
2022/07/04 04:07:26;;;;;;;3.38;1.35;;;20.70;93.80;;;;;;5052211;28;20182;-89
2022/07/04 04:09:51;;;;;;;3.05;1.20;;;21.00;93.80;;;;;;5051704;28;20021;-89
2022/07/04 04:12:17;;;;;;;3.20;1.60;;;21.20;93.50;;;;;;5035395;28;20037;-89
2022/07/04 04:14:43;;;;;;;3.10;1.38;;;21.50;93.10;;;;;;5034348;28;20032;-89
2022/07/04 04:17:08;;;;;;;3.15;1.50;;;21.80;92.30;;;;;;5033786;28;20025;-88
2022/07/04 04:19:34;;;;;;;4.05;1.40;;;22.00;91.30;;;;;;5034162;28;20025;-89
2022/07/04 04:22:00;;;;;;;6.78;1.80;;;22.20;90.60;;;;;;5032326;28;20021;-90
2022/07/04 04:24:25;;;;;;;2.53;1.52;;;22.20;90.30;;;;;;5032255;28;20501;-89
2022/07/04 04:26:51;;;;;;;4.70;1.50;;;22.40;90.20;;;;;;5033518;28;20025;-89
2022/07/04 04:29:17;;;;;;;5.65;1.65;;;22.50;90.00;;;;;;5033835;28;20124;-89
2022/07/04 04:31:42;;;;;;;3.72;2.10;;;22.60;89.70;;;;;;5051106;28;20056;-88
2022/07/04 04:34:08;;;;;;;4.30;2.10;;;22.80;89.10;;;;;;5033380;28;20025;-89
2022/07/04 04:36:33;;;;;;;3.42;2.15;;;22.90;88.10;;;;;;5033776;28;20021;-89
2022/07/04 04:38:59;;;;;;;8.05;2.70;;;23.00;88.30;;;;;;5033931;28;20029;-89
2022/07/04 04:41:25;;;;;;;5.85;1.98;;;23.20;88.30;;;;;;5033601;28;20036;-89
2022/07/04 04:43:51;;;;;;;4.82;2.45;;;23.40;87.80;;;;;;5032975;28;20025;-88
2022/07/04 04:46:16;;;;;;;4.53;2.63;;;23.60;87.30;;;;;;5033516;28;20025;-88
2022/07/04 04:48:42;;;;;;;3.40;2.55;;;23.70;86.40;;;;;;5033157;28;20126;-89
2022/07/04 04:51:08;;;;;;;3.70;2.20;;;23.80;84.50;;;;;;5033049;28;20017;-90
2022/07/04 04:53:33;;;;;;;4.45;2.22;;;23.90;83.20;;;;;;5033485;28;20035;-89
2022/07/04 04:55:59;;;;;;;4.15;2.38;;;24.00;81.70;;;;;;5034083;28;20027;-88
2022/07/04 04:58:25;;;;;;;2.90;2.05;;;24.20;81.70;;;;;;5051153;28;20477;-89
2022/07/04 05:00:50;;;;;;;3.42;2.00;;;24.20;81.10;;;;;;5014571;28;20691;-89
2022/07/04 05:03:17;;;;;;;3.30;1.83;;;24.30;80.50;;;;;;5033268;28;20362;-89
2022/07/04 05:05:43;;;;;;;2.80;1.48;;;24.50;80.10;;;;;;5033441;28;20029;-89
2022/07/04 05:08:09;;;;;;;3.97;2.50;;;24.60;79.00;;;;;;5032635;28;20098;-88
2022/07/04 05:10:35;;;;;;;5.63;2.55;;;24.80;78.80;;;;;;5029490;28;20025;-89
2022/07/04 05:13:00;;;;;;;8.45;2.72;;;24.90;78.60;;;;;;5013675;28;20040;-89
2022/07/04 05:15:26;;;;;;;6.95;2.90;;;25.10;78.20;;;;;;5014269;28;20025;-89
2022/07/04 05:17:58;;;;;;;6.03;2.80;;;25.20;78.60;;;;;;5015129;28;20030;-88
2022/07/04 05:20:23;;;;;;;4.30;2.60;;;25.40;79.10;;;;;;5012738;28;20346;-87
2022/07/04 05:22:49;;;;;;;3.42;2.30;;;25.60;78.00;;;;;;5018530;28;20412;-86
2022/07/04 05:25:15;;;;;;;6.18;2.55;;;25.80;76.90;;;;;;5033324;28;20118;-89
2022/07/04 05:27:41;;;;;;;4.50;2.63;;;26.00;76.60;;;;;;5032437;28;20056;-88
2022/07/04 05:30:07;;;;;;;4.78;2.13;;;26.10;76.70;;;;;;5034750;28;20054;-88
2022/07/04 05:32:33;;;;;;;4.78;3.10;;;26.10;75.90;;;;;;5036942;28;20071;-88
2022/07/04 05:34:59;;;;;;;5.18;2.30;;;26.10;75.60;;;;;;5036142;28;20032;-88
2022/07/04 05:37:25;;;;;;;9.88;2.60;;;26.10;74.70;;;;;;5034218;28;20025;-88
2022/07/04 05:39:51;;;;;;;4.07;2.40;;;26.10;74.70;;;;;;5033823;28;20029;-88
2022/07/04 05:42:17;;;;;;;6.68;2.40;;;26.20;74.10;;;;;;5036467;28;20039;-88
2022/07/04 05:44:43;;;;;;;5.53;2.22;;;26.40;73.20;;;;;;5037140;28;20040;-88
2022/07/04 05:47:09;;;;;;;13.18;2.95;;;26.60;72.20;;;;;;5053893;28;20037;-88
2022/07/04 05:49:36;;;;;;;8.60;2.67;;;26.90;71.80;;;;;;5036947;28;20021;-88
2022/07/04 05:52:02;;;;;;;5.88;2.30;;;27.20;71.40;;;;;;5036634;28;20021;-88
2022/07/04 05:54:28;;;;;;;6.88;2.35;;;27.60;70.40;;;;;;5034937;28;20462;-88
2022/07/04 05:56:53;;;;;;;5.85;2.88;;;28.30;68.10;;;;;;5053819;28;20032;-87
2022/07/04 05:59:19;;;;;;;9.98;2.60;;;29.20;65.30;;;;;;5036135;28;20071;-85
2022/07/04 06:01:45;;;;;;;10.52;3.00;;;30.70;61.10;;;;;;5035923;28;20029;-85
2022/07/04 06:04:10;;;;;;;4.95;2.65;;;32.30;55.80;;;;;;5035189;28;20130;-84
2022/07/04 06:06:36;;;;;;;5.80;2.90;;;33.90;51.60;;;;;;5035071;28;20025;-85
2022/07/04 06:09:03;;;;;;;10.20;2.80;;;35.10;46.00;;;;;;5033397;28;20538;-84
2022/07/04 06:11:28;;;;;;;6.72;2.55;;;36.10;43.00;;;;;;5052629;28;20111;-84
2022/07/04 06:13:54;;;;;;;4.95;3.05;;;37.10;39.70;;;;;;5052489;28;20060;-84
2022/07/04 06:16:20;;;;;;;4.40;2.45;;;38.20;38.30;;;;;;5035016;28;20327;-86
2022/07/04 06:18:46;;;;;;;6.05;2.50;;;38.80;36.10;;;;;;5035005;28;20033;-85
2022/07/04 06:21:12;;;;;;;7.38;2.97;;;39.20;34.30;;;;;;5034679;28;20420;-86
2022/07/04 06:23:37;;;;;;;6.97;2.78;;;39.30;34.20;;;;;;5046621;28;20032;-85
2022/07/04 06:26:03;;;;;;;3.25;2.58;;;39.80;32.90;;;;;;5054816;28;20028;-86
2022/07/04 06:28:29;;;;;;;4.50;2.50;;;40.00;31.50;;;;;;5053520;28;20510;-85
2022/07/04 06:30:55;;;;;;;6.30;2.80;;;40.00;31.10;;;;;;5047124;28;20029;-85
2022/07/04 06:33:21;;;;;;;8.82;2.20;;;40.30;29.80;;;;;;5034001;28;20033;-85
2022/07/04 06:35:54;;;;;;;12.48;2.67;;;40.60;30.00;;;;;;5033647;28;20120;-85
2022/07/04 06:38:22;;;;;;;5.20;2.70;;;41.00;28.90;;;;;;5033242;28;20033;-84
2022/07/04 06:40:54;;;;;;;10.13;3.17;;;41.00;28.20;;;;;;5051228;28;20094;-86
2022/07/04 06:43:19;;;;;;;4.70;2.80;;;41.20;28.20;;;;;;5033469;28;20021;-86
2022/07/04 06:45:45;;;;;;;5.10;2.30;;;41.00;28.20;;;;;;5034383;28;20372;-87
2022/07/04 06:48:11;;;;;;;3.17;2.38;;;40.70;29.20;;;;;;5051863;28;20041;-86
2022/07/04 06:50:37;;;;;;;4.97;2.90;;;40.90;28.10;;;;;;5033397;28;20401;-86
2022/07/04 06:53:05;;;;;;;5.60;2.60;;;41.10;28.20;;;;;;5034505;28;20033;-87
2022/07/04 06:55:31;;;;;;;4.13;2.65;;;41.40;28.10;;;;;;5039107;28;20025;-87
2022/07/04 06:57:57;;;;;;;8.15;2.50;;;41.60;27.50;;;;;;5060881;28;20036;-86
2022/07/04 07:00:22;;;;;;;6.30;2.80;;;41.70;26.90;;;;;;5064260;28;20025;-87
2022/07/04 07:02:49;;;;;;;4.18;2.10;;;41.50;26.70;;;;;;5035090;28;20039;-87
2022/07/04 07:05:14;;;;;;;5.88;2.10;;;41.50;26.90;;;;;;5034119;28;20489;-87
2022/07/04 07:07:40;;;;;;;4.05;2.50;;;41.60;26.40;;;;;;5034292;28;20036;-86
2022/07/04 07:10:06;;;;;;;3.53;2.22;;;41.30;26.40;;;;;;5035308;28;20025;-86
2022/07/04 07:12:33;;;;;;;6.38;2.20;;;40.60;26.60;;;;;;5035859;28;20027;-86
2022/07/04 07:14:59;;;;;;;3.83;2.20;;;40.60;26.50;;;;;;5051624;28;20063;-87
2022/07/04 07:17:25;;;;;;;5.18;2.10;;;40.30;26.70;;;;;;5051743;28;20393;-86
2022/07/04 07:19:51;;;;;;;5.32;2.30;;;40.40;27.00;;;;;;5033522;28;20029;-86
2022/07/04 07:22:17;;;;;;;7.10;2.60;;;40.60;26.70;;;;;;5051637;28;20040;-86
2022/07/04 07:24:43;;;;;;;7.28;2.80;;;41.20;26.40;;;;;;5034239;28;20033;-86
2022/07/04 07:27:09;;;;;;;3.55;2.28;;;40.80;26.30;;;;;;5033077;28;20501;-86
2022/07/04 07:29:36;;;;;;;6.90;2.25;;;40.50;27.10;;;;;;5033997;28;20033;-85
2022/07/04 07:32:02;;;;;;;2.72;2.10;;;40.60;27.40;;;;;;5051012;28;20507;-86
2022/07/04 07:34:28;;;;;;;3.33;2.10;;;41.00;27.20;;;;;;5032939;28;20115;-85
2022/07/04 07:36:54;;;;;;;5.05;2.42;;;41.20;26.80;;;;;;5032766;28;20167;-86
2022/07/04 07:39:19;;;;;;;2.72;1.80;;;41.50;26.50;;;;;;5050406;28;20108;-86
2022/07/04 07:41:46;;;;;;;2.72;2.03;;;41.50;26.50;;;;;;5032747;28;20109;-86
2022/07/04 07:44:12;;;;;;;4.43;2.50;;;41.60;26.00;;;;;;5033521;28;20040;-89
2022/07/04 07:46:37;;;;;;;4.22;2.10;;;41.70;26.10;;;;;;5031792;28;20025;-85
2022/07/04 07:49:03;;;;;;;2.30;2.05;;;41.50;26.10;;;;;;5050988;28;20413;-87
2022/07/04 07:51:29;;;;;;;3.72;2.30;;;41.50;26.30;;;;;;5052158;28;20025;-87
2022/07/04 07:53:55;;;;;;;3.40;2.28;;;41.60;25.90;;;;;;5032186;28;20029;-87
2022/07/04 07:56:21;;;;;;;3.45;2.33;;;41.20;26.50;;;;;;5032883;28;20091;-86
2022/07/04 07:58:46;;;;;;;8.07;2.22;;;41.40;26.50;;;;;;5033462;28;20032;-87
2022/07/04 08:01:12;;;;;;;6.10;2.20;;;41.50;26.50;;;;;;5033196;28;20653;-88
2022/07/04 08:06:22;;;;;;;5.65;2.60;;;42.10;26.00;;;;;;5049927;28;20036;-83
2022/07/04 08:08:47;;;;;;;3.42;2.38;;;41.50;26.50;;;;;;5029529;28;20420;-85
2022/07/04 08:11:13;;;;;;;6.82;1.85;;;41.40;26.20;;;;;;5031106;28;20029;-84
2022/07/04 08:13:40;;;;;;;4.80;1.92;;;41.30;26.60;;;;;;5031671;28;20039;-85
2022/07/04 08:16:06;;;;;;;7.15;2.28;;;41.40;26.30;;;;;;5049653;28;20032;-86
2022/07/04 08:18:32;;;;;;;3.83;2.00;;;41.60;26.60;;;;;;5049452;28;20036;-85
2022/07/04 08:20:59;;;;;;;4.10;2.42;;;41.50;26.70;;;;;;5031656;28;20086;-86
2022/07/04 08:23:25;;;;;;;5.28;2.38;;;41.50;26.30;;;;;;5032250;28;20412;-86
2022/07/04 08:25:50;;;;;;;3.92;2.00;;;41.00;26.90;;;;;;5031446;28;20025;-84
2022/07/04 08:28:16;;;;;;;6.15;2.05;;;41.10;27.00;;;;;;5049032;28;20132;-85
2022/07/04 08:30:42;;;;;;;4.18;1.95;;;41.30;26.50;;;;;;5049545;28;20024;-86
2022/07/04 08:33:07;;;;;;;4.43;1.92;;;41.50;26.70;;;;;;5032058;28;20033;-86
2022/07/04 08:35:33;;;;;;;5.47;1.98;;;41.90;26.40;;;;;;5032743;28;20025;-87
2022/07/04 08:37:59;;;;;;;1.88;1.70;;;42.10;26.50;;;;;;5050341;28;20032;-87
2022/07/04 08:40:27;;;;;;;2.58;2.00;;;42.00;26.30;;;;;;5050295;28;20047;-86
2022/07/04 08:42:54;;;;;;;5.60;2.15;;;41.90;26.30;;;;;;5050402;28;20061;-88
2022/07/04 08:45:27;;;;;;;3.15;2.10;;;41.70;26.30;;;;;;5033176;28;20029;-86
2022/07/04 08:48:01;;;;;;;3.00;1.67;;;42.00;26.00;;;;;;5032133;28;20064;-88
2022/07/04 08:50:30;;;;;;;16.20;2.30;;;42.00;26.20;;;;;;5050595;28;20028;-87
2022/07/04 08:53:19;;;;;;;9.63;1.95;;;42.00;26.10;;;;;;5032013;28;20025;-84
2022/07/04 08:58:31;;;;;;;2.28;1.50;;;41.90;25.70;;;;;;5048453;28;20083;-85
2022/07/04 09:01:03;;;;;;;6.70;1.90;;;41.90;25.80;;;;;;5030765;28;20497;-86
2022/07/04 09:03:30;;;;;;;2.47;1.77;;;41.90;25.80;;;;;;5028119;28;20035;-85
2022/07/04 09:05:57;;;;;;;2.90;2.05;;;41.70;26.00;;;;;;5028307;28;20128;-85
2022/07/04 09:08:23;;;;;;;4.80;2.08;;;41.70;26.30;;;;;;5030485;28;20525;-85
2022/07/04 09:10:50;;;;;;;3.83;2.13;;;41.90;26.00;;;;;;5029844;28;20059;-84
2022/07/04 09:13:17;;;;;;;4.22;2.10;;;41.90;26.30;;;;;;5048619;28;20071;-85
2022/07/04 09:15:45;;;;;;;4.10;2.15;;;41.70;26.40;;;;;;5031016;28;20021;-87
2022/07/04 09:18:32;;;;;;;5.22;1.98;;;41.50;26.40;;;;;;5032022;28;20043;-86
2022/07/04 09:21:00;;;;;;;3.63;1.83;;;41.60;26.60;;;;;;5032337;28;20021;-87
2022/07/04 09:23:31;;;;;;;3.78;2.10;;;41.60;26.50;;;;;;5050260;28;20481;-87
2022/07/04 09:26:25;;;;;;;2.20;1.70;;;41.80;25.60;;;;;;5049803;28;20381;-84
2022/07/04 09:28:58;;;;;;;2.65;1.80;;;41.90;25.80;;;;;;5031665;28;20057;-85
2022/07/04 09:31:26;;;;;;;5.47;1.95;;;41.70;26.60;;;;;;5032665;28;20485;-87
2022/07/04 09:33:54;;;;;;;2.80;2.10;;;41.70;26.90;;;;;;5032618;28;20485;-86
2022/07/04 09:36:28;;;;;;;4.45;1.63;;;41.80;25.80;;;;;;5032472;28;20029;-90
2022/07/04 09:39:06;;;;;;;5.53;1.85;;;41.80;25.90;;;;;;5030914;28;20028;-86
2022/07/04 09:41:48;;;;;;;1.92;1.75;;;41.90;25.40;;;;;;5031304;28;20030;-85
2022/07/04 09:44:14;;;;;;;4.68;2.10;;;42.00;25.30;;;;;;5048473;28;20021;-84
2022/07/04 09:46:40;;;;;;;5.03;2.17;;;42.10;25.50;;;;;;5066779;28;20035;-83
2022/07/04 09:49:05;;;;;;;2.63;1.80;;;42.30;25.10;;;;;;5043924;28;20037;-84
2022/07/04 09:51:46;;;;;;;4.15;1.80;;;42.30;25.60;;;;;;5029655;28;20036;-84
2022/07/04 09:54:15;;;;;;;4.60;1.77;;;42.20;25.50;;;;;;5028954;28;20037;-85
2022/07/04 09:56:46;;;;;;;4.38;1.98;;;42.20;25.10;;;;;;5029648;28;20048;-84
2022/07/04 09:59:12;;;;;;;7.15;1.73;;;42.20;25.50;;;;;;5046505;28;20036;-83
2022/07/04 10:01:39;;;;;;;3.40;1.88;;;42.20;25.50;;;;;;5030306;28;20029;-85
2022/07/04 10:04:06;;;;;;;1.67;1.38;;;42.10;25.60;;;;;;5031379;28;20242;-85
2022/07/04 10:06:33;;;;;;;4.07;1.65;;;41.70;23.30;;;;;;5031591;28;20021;-86
2022/07/04 10:09:09;;;;;;;3.38;1.77;;;41.10;24.20;;;;;;5031271;28;20086;-85
2022/07/04 10:11:36;;;;;;;1.63;1.20;;;40.70;24.60;;;;;;5031244;28;20044;-86
2022/07/04 10:14:03;;;;;;;1.75;1.42;;;40.40;24.00;;;;;;5030504;28;20022;-84
2022/07/04 10:16:31;;;;;;;2.35;1.80;;;40.10;25.80;;;;;;5031418;28;20056;-84
2022/07/04 10:18:57;;;;;;;3.65;1.50;;;39.30;25.40;;;;;;5050512;28;20037;-84
2022/07/04 10:21:23;;;;;;;5.85;1.67;;;39.30;25.50;;;;;;5051726;28;20032;-87
2022/07/04 10:23:51;;;;;;;2.90;1.83;;;39.00;26.10;;;;;;5034660;28;20020;-85
2022/07/04 10:26:22;;;;;;;2.00;1.60;;;38.70;26.40;;;;;;5052396;28;20186;-84
2022/07/04 10:28:49;;;;;;;3.08;1.42;;;38.70;26.50;;;;;;5032695;28;20075;-84
2022/07/04 10:31:16;;;;;;;4.38;2.00;;;38.60;26.80;;;;;;5034254;28;20120;-85
2022/07/04 10:33:43;;;;;;;2.75;1.70;;;38.50;27.30;;;;;;5034756;28;20028;-87
2022/07/04 10:36:20;;;;;;;2.28;1.50;;;38.30;27.00;;;;;;5036058;28;20103;-87
2022/07/04 10:38:55;;;;;;;2.00;1.70;;;38.20;26.20;;;;;;5035613;28;20170;-86
2022/07/04 10:41:22;;;;;;;2.33;1.77;;;38.10;26.80;;;;;;5035378;28;20025;-86
2022/07/04 10:43:48;;;;;;;2.80;1.65;;;37.80;26.80;;;;;;5035577;28;20501;-86
2022/07/04 10:46:18;;;;;;;2.38;1.33;;;37.60;27.10;;;;;;5034442;28;20109;-85
2022/07/04 10:48:56;;;;;;;2.30;1.30;;;37.50;27.20;;;;;;5035575;28;20070;-87
2022/07/04 10:51:35;;;;;;;2.13;1.38;;;37.30;27.10;;;;;;5034930;28;20421;-86
2022/07/04 10:54:03;;;;;;;2.30;1.65;;;37.10;27.70;;;;;;5034893;28;20029;-85
2022/07/04 10:56:29;;;;;;;3.58;1.70;;;36.90;27.90;;;;;;5034537;28;20021;-85
2022/07/04 10:58:57;;;;;;;2.10;1.73;;;36.80;27.00;;;;;;5033987;28;20400;-86
2022/07/04 11:01:23;;;;;;;1.40;1.23;;;36.50;28.00;;;;;;5051873;28;20461;-87
2022/07/04 11:03:53;;;;;;;2.92;1.27;;;36.50;27.70;;;;;;5052030;28;20087;-87
2022/07/04 11:06:37;;;;;;;1.73;1.13;;;36.40;27.20;;;;;;5034056;28;20036;-86
2022/07/04 11:09:12;;;;;;;4.78;1.65;;;36.40;27.50;;;;;;5034030;28;20076;-86
2022/07/04 11:11:54;;;;;;;3.30;1.63;;;36.40;27.30;;;;;;5052368;28;20032;-86
2022/07/04 11:14:43;;;;;;;2.67;1.38;;;36.10;27.20;;;;;;5036433;28;20052;-86
2022/07/04 11:17:14;;;;;;;3.05;1.63;;;36.20;27.90;;;;;;5054475;28;20032;-85
2022/07/04 11:19:41;;;;;;;1.58;1.10;;;36.30;27.80;;;;;;5072330;28;20631;-85
2022/07/04 11:22:09;;;;;;;5.82;1.42;;;36.40;26.60;;;;;;5070686;28;20078;-85
2022/07/04 11:24:36;;;;;;;4.45;1.42;;;36.30;26.10;;;;;;5031638;28;20044;-86
2022/07/04 11:27:02;;;;;;;2.92;1.70;;;36.10;26.60;;;;;;5031968;28;20037;-84
2022/07/04 11:29:29;;;;;;;2.03;1.45;;;35.70;26.30;;;;;;5031985;28;20053;-87
2022/07/04 11:31:56;;;;;;;2.40;1.35;;;35.50;26.40;;;;;;5033234;28;20057;-84
2022/07/04 11:34:23;;;;;;;1.63;1.02;;;35.30;26.50;;;;;;5051305;28;20036;-84
2022/07/04 11:36:50;;;;;;;5.80;1.13;;;35.40;26.60;;;;;;5033938;28;20029;-85
2022/07/04 11:39:21;;;;;;;2.35;1.58;;;35.50;26.30;;;;;;5034108;28;20029;-85
2022/07/04 11:47:38;;;;;;;5.68;1.50;;;35.60;26.40;;;;;;5021568;28;20088;-83
2022/07/04 11:50:16;;;;;;;3.17;1.27;;;35.70;26.30;;;;;;5022134;28;20037;-84
2022/07/04 11:52:44;;;;;;;2.83;1.20;;;35.80;25.70;;;;;;5012255;28;20043;-83
2022/07/04 11:55:13;;;;;;;1.73;0.95;;;36.00;26.40;;;;;;5006300;28;20120;-84
2022/07/04 11:57:40;;;;;;;5.65;1.00;;;36.10;26.20;;;;;;5013193;28;20477;-84
2022/07/04 12:00:06;;;;;;;1.88;1.08;;;36.10;24.30;;;;;;5019332;28;20045;-82
2022/07/04 12:02:33;;;;;;;2.20;1.30;;;36.10;23.80;;;;;;5023017;28;20403;-84
2022/07/04 12:04:59;;;;;;;2.17;1.58;;;35.90;23.30;;;;;;5018302;28;20041;-85
2022/07/04 12:07:27;;;;;;;1.40;0.80;;;35.70;23.50;;;;;;5029085;28;20048;-84
2022/07/04 12:09:54;;;;;;;2.78;1.00;;;35.70;24.40;;;;;;5008501;28;20034;-84
2022/07/04 12:12:21;;;;;;;1.77;1.13;;;35.70;24.40;;;;;;5005126;28;20049;-85
2022/07/04 12:15:03;;;;;;;2.67;1.30;;;35.70;24.50;;;;;;5003491;28;20580;-85
2022/07/04 12:17:34;;;;;;;1.70;1.10;;;35.80;24.30;;;;;;5021855;28;20052;-86
2022/07/04 12:20:13;;;;;;;2.58;1.23;;;35.90;24.70;;;;;;5031504;28;20045;-84
2022/07/04 12:22:41;;;;;;;1.38;1.00;;;36.10;24.40;;;;;;5013486;28;20032;-85
2022/07/04 12:25:20;;;;;;;1.30;0.90;;;36.20;23.50;;;;;;5013029;28;20029;-85
2022/07/04 12:27:55;;;;;;;3.88;1.52;;;36.10;23.20;;;;;;5013125;28;20095;-86
2022/07/04 12:30:22;;;;;;;2.15;1.30;;;35.80;23.60;;;;;;5010566;28;20037;-86
2022/07/04 12:32:51;;;;;;;2.88;1.27;;;35.70;24.20;;;;;;5012569;28;20030;-84
2022/07/04 12:35:35;;;;;;;1.88;1.40;;;35.70;23.70;;;;;;5014805;28;20543;-86
2022/07/04 12:38:12;;;;;;;2.17;1.38;;;35.80;24.80;;;;;;5014598;28;20021;-85
2022/07/04 12:40:57;;;;;;;3.13;1.45;;;35.90;25.70;;;;;;5030504;28;20025;-86
2022/07/04 12:43:44;;;;;;;3.92;1.45;;;36.00;25.40;;;;;;5013055;28;20037;-86
2022/07/04 12:46:29;;;;;;;3.95;1.52;;;36.10;25.90;;;;;;5012514;28;20116;-86
2022/07/04 12:48:57;;;;;;;2.30;1.33;;;36.20;26.70;;;;;;5013147;28;20087;-85
2022/07/04 12:51:29;;;;;;;1.90;1.40;;;36.10;26.10;;;;;;5031487;28;20066;-85
2022/07/04 12:53:56;;;;;;;2.38;1.40;;;36.20;26.60;;;;;;5050368;28;20028;-85
2022/07/04 12:56:45;;;;;;;3.00;1.70;;;36.20;26.80;;;;;;5032185;28;20413;-84
2022/07/04 12:59:18;;;;;;;1.80;1.13;;;36.40;26.30;;;;;;5033452;28;20035;-88
2022/07/04 13:01:44;;;;;;;6.75;1.38;;;36.50;26.10;;;;;;5032576;28;20033;-88
2022/07/04 13:04:10;;;;;;;3.90;1.35;;;36.50;25.90;;;;;;5033550;28;20025;-87
2022/07/04 13:06:36;;;;;;;4.32;2.42;;;36.60;25.90;;;;;;5033355;28;20017;-87